sensor_id;sensor_type;location;lat;lon;timestamp;P1;durP1;ratioP1;P2;durP2;ratioP2
8439;SDS011;4257;48.568;7.818;2022-10-16T00:00:34;0.90;;;0.38;;
8439;SDS011;4257;48.568;7.818;2022-10-16T00:03:21;0.90;;;0.30;;
8439;SDS011;4257;48.568;7.818;2022-10-16T00:06:08;0.25;;;0.20;;
8439;SDS011;4257;48.568;7.818;2022-10-16T00:08:56;0.73;;;0.50;;
8439;SDS011;4257;48.568;7.818;2022-10-16T00:11:43;1.27;;;0.60;;
8439;SDS011;4257;48.568;7.818;2022-10-16T00:14:32;0.38;;;0.30;;
8439;SDS011;4257;48.568;7.818;2022-10-16T00:17:19;0.52;;;0.32;;
8439;SDS011;4257;48.568;7.818;2022-10-16T00:20:06;0.28;;;0.25;;
8439;SDS011;4257;48.568;7.818;2022-10-16T00:22:54;0.55;;;0.30;;
8439;SDS011;4257;48.568;7.818;2022-10-16T00:25:41;0.52;;;0.52;;
8439;SDS011;4257;48.568;7.818;2022-10-16T00:28:28;0.45;;;0.40;;
8439;SDS011;4257;48.568;7.818;2022-10-16T00:31:17;0.40;;;0.35;;
8439;SDS011;4257;48.568;7.818;2022-10-16T00:34:05;1.67;;;0.40;;
8439;SDS011;4257;48.568;7.818;2022-10-16T00:36:52;0.30;;;0.20;;
8439;SDS011;4257;48.568;7.818;2022-10-16T00:39:39;0.40;;;0.40;;
8439;SDS011;4257;48.568;7.818;2022-10-16T00:42:26;3.88;;;0.30;;
8439;SDS011;4257;48.568;7.818;2022-10-16T00:45:13;1.50;;;0.57;;
8439;SDS011;4257;48.568;7.818;2022-10-16T00:48:02;0.40;;;0.28;;
8439;SDS011;4257;48.568;7.818;2022-10-16T00:50:49;1.17;;;0.73;;
8439;SDS011;4257;48.568;7.818;2022-10-16T00:53:36;0.77;;;0.50;;
8439;SDS011;4257;48.568;7.818;2022-10-16T00:56:23;0.30;;;0.17;;
8439;SDS011;4257;48.568;7.818;2022-10-16T00:59:11;0.50;;;0.40;;
8439;SDS011;4257;48.568;7.818;2022-10-16T01:02:01;0.38;;;0.25;;
8439;SDS011;4257;48.568;7.818;2022-10-16T01:04:50;2.25;;;1.15;;
8439;SDS011;4257;48.568;7.818;2022-10-16T01:07:41;0.32;;;0.20;;
8439;SDS011;4257;48.568;7.818;2022-10-16T01:10:34;1.63;;;0.60;;
8439;SDS011;4257;48.568;7.818;2022-10-16T01:13:24;0.32;;;0.20;;
8439;SDS011;4257;48.568;7.818;2022-10-16T01:16:15;1.00;;;0.68;;
8439;SDS011;4257;48.568;7.818;2022-10-16T01:19:11;0.50;;;0.20;;
8439;SDS011;4257;48.568;7.818;2022-10-16T01:22:01;0.80;;;0.57;;
8439;SDS011;4257;48.568;7.818;2022-10-16T01:24:48;0.57;;;0.50;;
8439;SDS011;4257;48.568;7.818;2022-10-16T01:27:38;1.20;;;0.77;;
8439;SDS011;4257;48.568;7.818;2022-10-16T01:30:27;1.65;;;0.50;;
8439;SDS011;4257;48.568;7.818;2022-10-16T01:33:19;0.40;;;0.30;;
8439;SDS011;4257;48.568;7.818;2022-10-16T01:36:09;1.17;;;0.80;;
8439;SDS011;4257;48.568;7.818;2022-10-16T01:38:59;1.52;;;0.68;;
8439;SDS011;4257;48.568;7.818;2022-10-16T01:41:48;1.00;;;0.50;;
8439;SDS011;4257;48.568;7.818;2022-10-16T01:44:40;1.08;;;0.52;;
8439;SDS011;4257;48.568;7.818;2022-10-16T01:47:27;0.90;;;0.70;;
8439;SDS011;4257;48.568;7.818;2022-10-16T01:50:18;1.20;;;0.65;;
8439;SDS011;4257;48.568;7.818;2022-10-16T01:53:05;0.98;;;0.55;;
8439;SDS011;4257;48.568;7.818;2022-10-16T01:55:54;0.63;;;0.57;;
8439;SDS011;4257;48.568;7.818;2022-10-16T01:58:43;0.77;;;0.32;;
8439;SDS011;4257;48.568;7.818;2022-10-16T02:01:34;0.32;;;0.25;;
8439;SDS011;4257;48.568;7.818;2022-10-16T02:04:23;4.28;;;1.75;;
8439;SDS011;4257;48.568;7.818;2022-10-16T02:07:13;0.73;;;0.45;;
8439;SDS011;4257;48.568;7.818;2022-10-16T02:10:00;0.40;;;0.30;;
8439;SDS011;4257;48.568;7.818;2022-10-16T02:12:48;0.35;;;0.30;;
8439;SDS011;4257;48.568;7.818;2022-10-16T02:15:37;0.50;;;0.32;;
8439;SDS011;4257;48.568;7.818;2022-10-16T02:18:26;0.68;;;0.45;;
8439;SDS011;4257;48.568;7.818;2022-10-16T02:21:16;1.30;;;0.55;;
8439;SDS011;4257;48.568;7.818;2022-10-16T02:24:07;0.40;;;0.40;;
8439;SDS011;4257;48.568;7.818;2022-10-16T02:26:57;0.32;;;0.20;;
8439;SDS011;4257;48.568;7.818;2022-10-16T02:29:51;0.60;;;0.40;;
8439;SDS011;4257;48.568;7.818;2022-10-16T02:32:44;3.90;;;0.75;;
8439;SDS011;4257;48.568;7.818;2022-10-16T02:35:34;1.30;;;0.45;;
8439;SDS011;4257;48.568;7.818;2022-10-16T02:38:21;3.42;;;1.02;;
8439;SDS011;4257;48.568;7.818;2022-10-16T02:41:08;0.40;;;0.40;;
8439;SDS011;4257;48.568;7.818;2022-10-16T02:43:55;0.60;;;0.30;;
8439;SDS011;4257;48.568;7.818;2022-10-16T02:46:42;0.70;;;0.60;;
8439;SDS011;4257;48.568;7.818;2022-10-16T02:49:29;1.40;;;0.43;;
8439;SDS011;4257;48.568;7.818;2022-10-16T02:52:17;0.50;;;0.50;;
8439;SDS011;4257;48.568;7.818;2022-10-16T02:55:04;0.95;;;0.38;;
8439;SDS011;4257;48.568;7.818;2022-10-16T02:57:52;0.77;;;0.30;;
8439;SDS011;4257;48.568;7.818;2022-10-16T03:00:39;0.88;;;0.30;;
8439;SDS011;4257;48.568;7.818;2022-10-16T03:03:26;9.50;;;1.20;;
8439;SDS011;4257;48.568;7.818;2022-10-16T03:06:13;0.63;;;0.40;;
8439;SDS011;4257;48.568;7.818;2022-10-16T03:09:01;0.85;;;0.60;;
8439;SDS011;4257;48.568;7.818;2022-10-16T03:11:48;0.85;;;0.30;;
8439;SDS011;4257;48.568;7.818;2022-10-16T03:14:35;0.55;;;0.30;;
8439;SDS011;4257;48.568;7.818;2022-10-16T03:17:22;2.17;;;0.68;;
8439;SDS011;4257;48.568;7.818;2022-10-16T03:20:09;0.47;;;0.32;;
8439;SDS011;4257;48.568;7.818;2022-10-16T04:04:14;0.90;;;0.63;;
8439;SDS011;4257;48.568;7.818;2022-10-16T04:07:01;1.00;;;0.50;;
8439;SDS011;4257;48.568;7.818;2022-10-16T04:09:47;0.40;;;0.35;;
8439;SDS011;4257;48.568;7.818;2022-10-16T04:12:34;1.25;;;0.50;;
8439;SDS011;4257;48.568;7.818;2022-10-16T04:15:21;1.77;;;0.57;;
8439;SDS011;4257;48.568;7.818;2022-10-16T04:18:08;1.80;;;0.75;;
8439;SDS011;4257;48.568;7.818;2022-10-16T04:20:56;1.75;;;0.80;;
8439;SDS011;4257;48.568;7.818;2022-10-16T04:23:43;1.40;;;0.68;;
8439;SDS011;4257;48.568;7.818;2022-10-16T04:26:30;0.60;;;0.40;;
8439;SDS011;4257;48.568;7.818;2022-10-16T04:29:17;0.43;;;0.30;;
8439;SDS011;4257;48.568;7.818;2022-10-16T04:32:04;3.63;;;0.70;;
8439;SDS011;4257;48.568;7.818;2022-10-16T04:34:51;0.35;;;0.30;;
8439;SDS011;4257;48.568;7.818;2022-10-16T04:37:39;1.33;;;0.73;;
8439;SDS011;4257;48.568;7.818;2022-10-16T04:40:26;0.55;;;0.40;;
8439;SDS011;4257;48.568;7.818;2022-10-16T04:43:13;2.65;;;0.73;;
8439;SDS011;4257;48.568;7.818;2022-10-16T04:45:59;2.17;;;0.55;;
8439;SDS011;4257;48.568;7.818;2022-10-16T04:48:47;0.70;;;0.50;;
8439;SDS011;4257;48.568;7.818;2022-10-16T04:51:33;0.90;;;0.45;;
8439;SDS011;4257;48.568;7.818;2022-10-16T04:54:22;0.95;;;0.80;;
8439;SDS011;4257;48.568;7.818;2022-10-16T04:57:09;0.60;;;0.50;;
8439;SDS011;4257;48.568;7.818;2022-10-16T04:59:55;0.73;;;0.68;;
8439;SDS011;4257;48.568;7.818;2022-10-16T05:02:42;1.15;;;0.50;;
8439;SDS011;4257;48.568;7.818;2022-10-16T05:05:29;0.28;;;0.22;;
8439;SDS011;4257;48.568;7.818;2022-10-16T05:08:16;0.95;;;0.80;;
8439;SDS011;4257;48.568;7.818;2022-10-16T05:11:04;0.88;;;0.70;;
8439;SDS011;4257;48.568;7.818;2022-10-16T05:13:51;1.63;;;1.05;;
8439;SDS011;4257;48.568;7.818;2022-10-16T05:16:38;0.88;;;0.40;;
8439;SDS011;4257;48.568;7.818;2022-10-16T05:19:25;0.75;;;0.73;;
8439;SDS011;4257;48.568;7.818;2022-10-16T05:22:11;0.50;;;0.30;;
8439;SDS011;4257;48.568;7.818;2022-10-16T05:24:58;0.40;;;0.30;;
8439;SDS011;4257;48.568;7.818;2022-10-16T05:27:48;0.73;;;0.65;;
8439;SDS011;4257;48.568;7.818;2022-10-16T05:30:36;1.48;;;1.20;;
8439;SDS011;4257;48.568;7.818;2022-10-16T05:33:24;1.35;;;0.57;;
8439;SDS011;4257;48.568;7.818;2022-10-16T05:36:11;2.53;;;0.82;;
8439;SDS011;4257;48.568;7.818;2022-10-16T05:38:58;0.80;;;0.70;;
8439;SDS011;4257;48.568;7.818;2022-10-16T05:41:45;0.52;;;0.40;;
8439;SDS011;4257;48.568;7.818;2022-10-16T05:44:33;0.85;;;0.63;;
8439;SDS011;4257;48.568;7.818;2022-10-16T05:47:20;2.08;;;0.80;;
8439;SDS011;4257;48.568;7.818;2022-10-16T05:50:07;1.00;;;0.80;;
8439;SDS011;4257;48.568;7.818;2022-10-16T05:52:54;0.63;;;0.32;;
8439;SDS011;4257;48.568;7.818;2022-10-16T05:55:41;1.65;;;0.50;;
8439;SDS011;4257;48.568;7.818;2022-10-16T05:58:28;1.33;;;0.63;;
8439;SDS011;4257;48.568;7.818;2022-10-16T06:01:18;1.20;;;0.70;;
8439;SDS011;4257;48.568;7.818;2022-10-16T06:04:06;1.33;;;0.60;;
8439;SDS011;4257;48.568;7.818;2022-10-16T06:06:52;0.63;;;0.47;;
8439;SDS011;4257;48.568;7.818;2022-10-16T06:09:39;0.38;;;0.30;;
8439;SDS011;4257;48.568;7.818;2022-10-16T06:12:26;0.75;;;0.45;;
8439;SDS011;4257;48.568;7.818;2022-10-16T06:15:13;0.80;;;0.57;;
8439;SDS011;4257;48.568;7.818;2022-10-16T06:18:02;1.00;;;0.43;;
8439;SDS011;4257;48.568;7.818;2022-10-16T06:20:49;0.82;;;0.52;;
8439;SDS011;4257;48.568;7.818;2022-10-16T06:23:36;0.65;;;0.38;;
8439;SDS011;4257;48.568;7.818;2022-10-16T06:26:23;1.52;;;0.77;;
8439;SDS011;4257;48.568;7.818;2022-10-16T06:29:11;2.35;;;1.08;;
8439;SDS011;4257;48.568;7.818;2022-10-16T06:31:58;0.70;;;0.70;;
8439;SDS011;4257;48.568;7.818;2022-10-16T06:34:46;0.60;;;0.50;;
8439;SDS011;4257;48.568;7.818;2022-10-16T06:37:33;1.13;;;0.45;;
8439;SDS011;4257;48.568;7.818;2022-10-16T06:40:19;0.70;;;0.50;;
8439;SDS011;4257;48.568;7.818;2022-10-16T06:43:06;0.65;;;0.60;;
8439;SDS011;4257;48.568;7.818;2022-10-16T06:45:53;1.58;;;0.73;;
8439;SDS011;4257;48.568;7.818;2022-10-16T06:48:40;1.42;;;0.65;;
8439;SDS011;4257;48.568;7.818;2022-10-16T06:51:29;1.15;;;0.60;;
8439;SDS011;4257;48.568;7.818;2022-10-16T06:54:17;0.60;;;0.40;;
8439;SDS011;4257;48.568;7.818;2022-10-16T06:57:04;1.00;;;0.30;;
8439;SDS011;4257;48.568;7.818;2022-10-16T06:59:51;2.13;;;0.68;;
8439;SDS011;4257;48.568;7.818;2022-10-16T07:02:38;2.78;;;0.60;;
8439;SDS011;4257;48.568;7.818;2022-10-16T07:05:24;0.40;;;0.40;;
8439;SDS011;4257;48.568;7.818;2022-10-16T07:08:13;2.15;;;1.15;;
8439;SDS011;4257;48.568;7.818;2022-10-16T07:11:00;0.52;;;0.40;;
8439;SDS011;4257;48.568;7.818;2022-10-16T07:13:47;0.60;;;0.60;;
8439;SDS011;4257;48.568;7.818;2022-10-16T07:16:34;0.70;;;0.60;;
8439;SDS011;4257;48.568;7.818;2022-10-16T07:19:21;1.52;;;0.50;;
8439;SDS011;4257;48.568;7.818;2022-10-16T07:22:08;2.92;;;0.50;;
8439;SDS011;4257;48.568;7.818;2022-10-16T07:24:56;0.60;;;0.50;;
8439;SDS011;4257;48.568;7.818;2022-10-16T07:27:44;1.10;;;0.50;;
8439;SDS011;4257;48.568;7.818;2022-10-16T07:30:30;1.15;;;1.00;;
8439;SDS011;4257;48.568;7.818;2022-10-16T07:33:21;1.65;;;0.63;;
8439;SDS011;4257;48.568;7.818;2022-10-16T07:36:08;1.05;;;0.22;;
8439;SDS011;4257;48.568;7.818;2022-10-16T07:38:55;1.15;;;0.57;;
8439;SDS011;4257;48.568;7.818;2022-10-16T07:41:43;2.00;;;0.60;;
8439;SDS011;4257;48.568;7.818;2022-10-16T07:44:30;2.10;;;0.65;;
8439;SDS011;4257;48.568;7.818;2022-10-16T07:47:17;0.55;;;0.50;;
8439;SDS011;4257;48.568;7.818;2022-10-16T07:50:04;4.55;;;0.73;;
8439;SDS011;4257;48.568;7.818;2022-10-16T07:52:51;0.90;;;0.43;;
8439;SDS011;4257;48.568;7.818;2022-10-16T07:55:38;0.82;;;0.40;;
8439;SDS011;4257;48.568;7.818;2022-10-16T07:58:27;0.98;;;0.80;;
8439;SDS011;4257;48.568;7.818;2022-10-16T08:01:14;1.75;;;0.60;;
8439;SDS011;4257;48.568;7.818;2022-10-16T08:04:02;0.82;;;0.60;;
8439;SDS011;4257;48.568;7.818;2022-10-16T08:06:48;1.17;;;0.40;;
8439;SDS011;4257;48.568;7.818;2022-10-16T08:09:35;0.68;;;0.30;;
8439;SDS011;4257;48.568;7.818;2022-10-16T08:12:22;0.75;;;0.20;;
8439;SDS011;4257;48.568;7.818;2022-10-16T08:15:11;2.08;;;0.43;;
8439;SDS011;4257;48.568;7.818;2022-10-16T08:17:58;4.65;;;0.60;;
8439;SDS011;4257;48.568;7.818;2022-10-16T08:20:46;1.58;;;0.55;;
8439;SDS011;4257;48.568;7.818;2022-10-16T08:23:33;0.90;;;0.65;;
8439;SDS011;4257;48.568;7.818;2022-10-16T08:26:20;0.95;;;0.47;;
8439;SDS011;4257;48.568;7.818;2022-10-16T08:29:07;0.75;;;0.57;;
8439;SDS011;4257;48.568;7.818;2022-10-16T08:31:55;1.10;;;0.40;;
8439;SDS011;4257;48.568;7.818;2022-10-16T08:34:42;1.23;;;0.40;;
8439;SDS011;4257;48.568;7.818;2022-10-16T08:37:29;1.85;;;0.98;;
8439;SDS011;4257;48.568;7.818;2022-10-16T08:40:17;1.38;;;0.70;;
8439;SDS011;4257;48.568;7.818;2022-10-16T08:43:16;0.80;;;0.50;;
8439;SDS011;4257;48.568;7.818;2022-10-16T08:46:16;0.75;;;0.55;;
8439;SDS011;4257;48.568;7.818;2022-10-16T08:49:11;1.33;;;0.73;;
8439;SDS011;4257;48.568;7.818;2022-10-16T08:51:59;0.70;;;0.43;;
8439;SDS011;4257;48.568;7.818;2022-10-16T08:54:47;0.60;;;0.43;;
8439;SDS011;4257;48.568;7.818;2022-10-16T08:57:37;0.95;;;0.60;;
8439;SDS011;4257;48.568;7.818;2022-10-16T09:00:23;0.57;;;0.45;;
8439;SDS011;4257;48.568;7.818;2022-10-16T09:03:14;2.45;;;0.80;;
8439;SDS011;4257;48.568;7.818;2022-10-16T09:12:31;0.77;;;0.73;;
8439;SDS011;4257;48.568;7.818;2022-10-16T09:15:24;0.70;;;0.60;;
8439;SDS011;4257;48.568;7.818;2022-10-16T09:18:17;1.58;;;0.80;;
8439;SDS011;4257;48.568;7.818;2022-10-16T09:21:08;0.43;;;0.30;;
8439;SDS011;4257;48.568;7.818;2022-10-16T09:23:58;0.63;;;0.52;;
8439;SDS011;4257;48.568;7.818;2022-10-16T09:26:46;0.75;;;0.45;;
8439;SDS011;4257;48.568;7.818;2022-10-16T09:29:33;0.43;;;0.35;;
8439;SDS011;4257;48.568;7.818;2022-10-16T09:32:20;12.60;;;2.05;;
8439;SDS011;4257;48.568;7.818;2022-10-16T09:35:11;2.00;;;0.52;;
8439;SDS011;4257;48.568;7.818;2022-10-16T09:38:00;1.85;;;0.60;;
8439;SDS011;4257;48.568;7.818;2022-10-16T09:40:49;1.88;;;1.48;;
8439;SDS011;4257;48.568;7.818;2022-10-16T09:43:38;2.53;;;0.70;;
8439;SDS011;4257;48.568;7.818;2022-10-16T09:46:27;0.98;;;0.80;;
8439;SDS011;4257;48.568;7.818;2022-10-16T09:49:19;1.95;;;1.05;;
8439;SDS011;4257;48.568;7.818;2022-10-16T09:52:11;0.85;;;0.38;;
8439;SDS011;4257;48.568;7.818;2022-10-16T09:55:00;0.70;;;0.68;;
8439;SDS011;4257;48.568;7.818;2022-10-16T09:57:50;1.33;;;0.75;;
8439;SDS011;4257;48.568;7.818;2022-10-16T10:00:37;5.13;;;1.88;;
8439;SDS011;4257;48.568;7.818;2022-10-16T10:03:35;2.17;;;0.90;;
8439;SDS011;4257;48.568;7.818;2022-10-16T10:06:24;1.23;;;0.45;;
8439;SDS011;4257;48.568;7.818;2022-10-16T10:09:19;0.93;;;0.50;;
8439;SDS011;4257;48.568;7.818;2022-10-16T10:12:14;1.20;;;0.65;;
8439;SDS011;4257;48.568;7.818;2022-10-16T10:15:06;1.50;;;1.05;;
8439;SDS011;4257;48.568;7.818;2022-10-16T10:17:56;8.27;;;0.55;;
8439;SDS011;4257;48.568;7.818;2022-10-16T10:20:43;0.68;;;0.55;;
8439;SDS011;4257;48.568;7.818;2022-10-16T10:23:31;1.67;;;1.08;;
8439;SDS011;4257;48.568;7.818;2022-10-16T10:26:18;1.70;;;0.43;;
8439;SDS011;4257;48.568;7.818;2022-10-16T10:29:10;0.60;;;0.50;;
8439;SDS011;4257;48.568;7.818;2022-10-16T10:32:09;0.68;;;0.47;;
8439;SDS011;4257;48.568;7.818;2022-10-16T10:35:05;0.80;;;0.43;;
8439;SDS011;4257;48.568;7.818;2022-10-16T10:38:01;0.63;;;0.57;;
8439;SDS011;4257;48.568;7.818;2022-10-16T10:40:56;1.00;;;0.63;;
8439;SDS011;4257;48.568;7.818;2022-10-16T10:43:53;1.02;;;0.40;;
8439;SDS011;4257;48.568;7.818;2022-10-16T10:46:45;2.47;;;0.45;;
8439;SDS011;4257;48.568;7.818;2022-10-16T10:49:41;1.08;;;0.60;;
8439;SDS011;4257;48.568;7.818;2022-10-16T10:52:38;0.75;;;0.50;;
8439;SDS011;4257;48.568;7.818;2022-10-16T10:55:31;0.55;;;0.43;;
8439;SDS011;4257;48.568;7.818;2022-10-16T10:58:37;0.68;;;0.40;;
8439;SDS011;4257;48.568;7.818;2022-10-16T11:01:33;1.58;;;0.90;;
8439;SDS011;4257;48.568;7.818;2022-10-16T11:04:45;6.45;;;1.20;;
8439;SDS011;4257;48.568;7.818;2022-10-16T11:07:41;1.08;;;0.75;;
8439;SDS011;4257;48.568;7.818;2022-10-16T11:10:33;1.15;;;0.75;;
8439;SDS011;4257;48.568;7.818;2022-10-16T11:13:27;1.73;;;0.60;;
8439;SDS011;4257;48.568;7.818;2022-10-16T11:16:18;1.17;;;0.50;;
8439;SDS011;4257;48.568;7.818;2022-10-16T11:19:10;0.52;;;0.52;;
8439;SDS011;4257;48.568;7.818;2022-10-16T11:22:03;0.55;;;0.50;;
8439;SDS011;4257;48.568;7.818;2022-10-16T11:25:04;0.63;;;0.60;;
8439;SDS011;4257;48.568;7.818;2022-10-16T11:27:59;0.35;;;0.28;;
8439;SDS011;4257;48.568;7.818;2022-10-16T11:30:50;1.95;;;0.85;;
8439;SDS011;4257;48.568;7.818;2022-10-16T11:33:41;1.98;;;0.90;;
8439;SDS011;4257;48.568;7.818;2022-10-16T11:36:32;2.05;;;0.73;;
8439;SDS011;4257;48.568;7.818;2022-10-16T11:39:24;0.70;;;0.60;;
8439;SDS011;4257;48.568;7.818;2022-10-16T11:42:13;0.52;;;0.40;;
8439;SDS011;4257;48.568;7.818;2022-10-16T11:45:08;2.47;;;0.63;;
8439;SDS011;4257;48.568;7.818;2022-10-16T11:48:04;3.08;;;0.80;;
8439;SDS011;4257;48.568;7.818;2022-10-16T11:50:56;1.50;;;0.80;;
8439;SDS011;4257;48.568;7.818;2022-10-16T11:53:50;3.33;;;0.90;;
8439;SDS011;4257;48.568;7.818;2022-10-16T11:56:42;1.50;;;0.70;;
8439;SDS011;4257;48.568;7.818;2022-10-16T11:59:31;1.85;;;0.95;;
8439;SDS011;4257;48.568;7.818;2022-10-16T12:02:26;1.33;;;0.70;;
8439;SDS011;4257;48.568;7.818;2022-10-16T12:05:32;0.40;;;0.40;;
8439;SDS011;4257;48.568;7.818;2022-10-16T12:08:24;1.35;;;1.08;;
8439;SDS011;4257;48.568;7.818;2022-10-16T12:11:22;0.75;;;0.60;;
8439;SDS011;4257;48.568;7.818;2022-10-16T12:14:20;1.10;;;0.40;;
8439;SDS011;4257;48.568;7.818;2022-10-16T12:17:23;1.17;;;0.68;;
8439;SDS011;4257;48.568;7.818;2022-10-16T12:23:19;1.13;;;0.73;;
8439;SDS011;4257;48.568;7.818;2022-10-16T12:26:07;1.05;;;0.80;;
8439;SDS011;4257;48.568;7.818;2022-10-16T12:28:54;1.23;;;0.60;;
8439;SDS011;4257;48.568;7.818;2022-10-16T12:31:45;2.10;;;0.90;;
8439;SDS011;4257;48.568;7.818;2022-10-16T12:34:35;0.82;;;0.40;;
8439;SDS011;4257;48.568;7.818;2022-10-16T12:37:25;1.55;;;1.45;;
8439;SDS011;4257;48.568;7.818;2022-10-16T12:40:13;0.50;;;0.32;;
8439;SDS011;4257;48.568;7.818;2022-10-16T12:43:12;1.75;;;1.15;;
8439;SDS011;4257;48.568;7.818;2022-10-16T12:46:24;1.38;;;0.93;;
8439;SDS011;4257;48.568;7.818;2022-10-16T12:49:30;1.95;;;1.30;;
8439;SDS011;4257;48.568;7.818;2022-10-16T12:52:26;1.42;;;0.80;;
8439;SDS011;4257;48.568;7.818;2022-10-16T12:55:15;3.15;;;1.48;;
8439;SDS011;4257;48.568;7.818;2022-10-16T12:58:06;1.02;;;0.50;;
8439;SDS011;4257;48.568;7.818;2022-10-16T13:01:07;0.95;;;0.50;;
8439;SDS011;4257;48.568;7.818;2022-10-16T13:04:15;2.53;;;0.70;;
8439;SDS011;4257;48.568;7.818;2022-10-16T13:07:15;4.10;;;0.50;;
8439;SDS011;4257;48.568;7.818;2022-10-16T13:10:10;0.50;;;0.40;;
8439;SDS011;4257;48.568;7.818;2022-10-16T13:13:12;0.85;;;0.45;;
8439;SDS011;4257;48.568;7.818;2022-10-16T13:16:09;0.85;;;0.43;;
8439;SDS011;4257;48.568;7.818;2022-10-16T13:19:06;0.88;;;0.77;;
8439;SDS011;4257;48.568;7.818;2022-10-16T13:22:00;0.60;;;0.40;;
8439;SDS011;4257;48.568;7.818;2022-10-16T13:24:54;1.38;;;0.77;;
8439;SDS011;4257;48.568;7.818;2022-10-16T13:27:47;1.42;;;0.73;;
8439;SDS011;4257;48.568;7.818;2022-10-16T13:30:38;0.63;;;0.60;;
8439;SDS011;4257;48.568;7.818;2022-10-16T13:33:28;1.25;;;0.70;;
8439;SDS011;4257;48.568;7.818;2022-10-16T13:36:18;1.30;;;0.73;;
8439;SDS011;4257;48.568;7.818;2022-10-16T13:39:10;1.55;;;0.63;;
8439;SDS011;4257;48.568;7.818;2022-10-16T13:42:02;2.17;;;0.85;;
8439;SDS011;4257;48.568;7.818;2022-10-16T13:44:51;0.60;;;0.43;;
8439;SDS011;4257;48.568;7.818;2022-10-16T13:47:39;0.28;;;0.25;;
8439;SDS011;4257;48.568;7.818;2022-10-16T13:50:26;0.95;;;0.40;;
8439;SDS011;4257;48.568;7.818;2022-10-16T13:53:13;0.63;;;0.57;;
8439;SDS011;4257;48.568;7.818;2022-10-16T13:56:02;1.35;;;0.52;;
8439;SDS011;4257;48.568;7.818;2022-10-16T13:58:59;0.32;;;0.32;;
8439;SDS011;4257;48.568;7.818;2022-10-16T14:01:46;1.17;;;0.85;;
8439;SDS011;4257;48.568;7.818;2022-10-16T14:04:33;0.73;;;0.60;;
8439;SDS011;4257;48.568;7.818;2022-10-16T14:07:25;0.43;;;0.30;;
8439;SDS011;4257;48.568;7.818;2022-10-16T14:10:18;0.50;;;0.40;;
8439;SDS011;4257;48.568;7.818;2022-10-16T14:13:12;0.90;;;0.68;;
8439;SDS011;4257;48.568;7.818;2022-10-16T14:16:06;1.75;;;0.85;;
8439;SDS011;4257;48.568;7.818;2022-10-16T14:18:56;0.63;;;0.40;;
8439;SDS011;4257;48.568;7.818;2022-10-16T14:21:44;1.52;;;0.70;;
8439;SDS011;4257;48.568;7.818;2022-10-16T14:24:31;0.63;;;0.40;;
8439;SDS011;4257;48.568;7.818;2022-10-16T14:27:28;0.68;;;0.40;;
8439;SDS011;4257;48.568;7.818;2022-10-16T14:30:18;0.70;;;0.57;;
8439;SDS011;4257;48.568;7.818;2022-10-16T14:33:20;0.75;;;0.60;;
8439;SDS011;4257;48.568;7.818;2022-10-16T14:36:11;0.52;;;0.52;;
8439;SDS011;4257;48.568;7.818;2022-10-16T14:39:00;0.43;;;0.43;;
8439;SDS011;4257;48.568;7.818;2022-10-16T14:41:50;0.57;;;0.45;;
8439;SDS011;4257;48.568;7.818;2022-10-16T14:44:38;0.73;;;0.40;;
8439;SDS011;4257;48.568;7.818;2022-10-16T14:47:26;0.85;;;0.65;;
8439;SDS011;4257;48.568;7.818;2022-10-16T14:50:14;0.52;;;0.52;;
8439;SDS011;4257;48.568;7.818;2022-10-16T14:53:01;1.48;;;0.70;;
8439;SDS011;4257;48.568;7.818;2022-10-16T14:55:51;3.80;;;0.40;;
8439;SDS011;4257;48.568;7.818;2022-10-16T14:58:38;2.38;;;0.85;;
8439;SDS011;4257;48.568;7.818;2022-10-16T15:01:25;1.02;;;0.50;;
8439;SDS011;4257;48.568;7.818;2022-10-16T15:04:12;0.60;;;0.40;;
8439;SDS011;4257;48.568;7.818;2022-10-16T15:07:02;1.13;;;0.65;;
8439;SDS011;4257;48.568;7.818;2022-10-16T15:09:49;0.63;;;0.43;;
8439;SDS011;4257;48.568;7.818;2022-10-16T15:12:35;1.40;;;0.40;;
8439;SDS011;4257;48.568;7.818;2022-10-16T15:15:24;1.27;;;0.68;;
8439;SDS011;4257;48.568;7.818;2022-10-16T15:18:14;0.45;;;0.32;;
8439;SDS011;4257;48.568;7.818;2022-10-16T15:21:05;1.98;;;0.60;;
8439;SDS011;4257;48.568;7.818;2022-10-16T15:23:54;3.33;;;0.35;;
8439;SDS011;4257;48.568;7.818;2022-10-16T15:26:42;1.50;;;0.80;;
8439;SDS011;4257;48.568;7.818;2022-10-16T15:29:29;1.30;;;0.70;;
8439;SDS011;4257;48.568;7.818;2022-10-16T15:32:16;0.40;;;0.40;;
8439;SDS011;4257;48.568;7.818;2022-10-16T15:35:03;1.85;;;0.68;;
8439;SDS011;4257;48.568;7.818;2022-10-16T15:37:50;0.80;;;0.47;;
8439;SDS011;4257;48.568;7.818;2022-10-16T15:40:39;3.88;;;0.77;;
8439;SDS011;4257;48.568;7.818;2022-10-16T15:43:26;0.47;;;0.40;;
8439;SDS011;4257;48.568;7.818;2022-10-16T15:46:13;1.05;;;0.30;;
8439;SDS011;4257;48.568;7.818;2022-10-16T15:49:00;0.55;;;0.47;;
8439;SDS011;4257;48.568;7.818;2022-10-16T15:51:47;1.45;;;0.38;;
8439;SDS011;4257;48.568;7.818;2022-10-16T15:54:34;0.88;;;0.70;;
8439;SDS011;4257;48.568;7.818;2022-10-16T15:57:22;0.73;;;0.43;;
8439;SDS011;4257;48.568;7.818;2022-10-16T16:00:11;0.57;;;0.47;;
8439;SDS011;4257;48.568;7.818;2022-10-16T16:02:59;0.63;;;0.50;;
8439;SDS011;4257;48.568;7.818;2022-10-16T16:05:46;0.88;;;0.75;;
8439;SDS011;4257;48.568;7.818;2022-10-16T16:08:33;2.22;;;0.70;;
8439;SDS011;4257;48.568;7.818;2022-10-16T16:11:20;1.77;;;0.60;;
8439;SDS011;4257;48.568;7.818;2022-10-16T16:14:10;1.05;;;0.70;;
8439;SDS011;4257;48.568;7.818;2022-10-16T16:16:59;1.30;;;1.10;;
8439;SDS011;4257;48.568;7.818;2022-10-16T16:19:47;0.70;;;0.57;;
8439;SDS011;4257;48.568;7.818;2022-10-16T16:22:34;0.82;;;0.60;;
8439;SDS011;4257;48.568;7.818;2022-10-16T16:25:22;1.17;;;0.70;;
8439;SDS011;4257;48.568;7.818;2022-10-16T16:28:09;3.47;;;1.05;;
8439;SDS011;4257;48.568;7.818;2022-10-16T16:31:00;2.00;;;1.30;;
8439;SDS011;4257;48.568;7.818;2022-10-16T16:33:47;2.53;;;1.50;;
8439;SDS011;4257;48.568;7.818;2022-10-16T16:36:36;1.42;;;1.08;;
8439;SDS011;4257;48.568;7.818;2022-10-16T16:39:24;4.15;;;0.75;;
8439;SDS011;4257;48.568;7.818;2022-10-16T16:42:11;0.80;;;0.60;;
8439;SDS011;4257;48.568;7.818;2022-10-16T16:44:58;0.90;;;0.63;;
8439;SDS011;4257;48.568;7.818;2022-10-16T16:47:47;2.25;;;1.25;;
8439;SDS011;4257;48.568;7.818;2022-10-16T16:50:34;1.90;;;1.10;;
8439;SDS011;4257;48.568;7.818;2022-10-16T16:53:21;1.15;;;0.70;;
8439;SDS011;4257;48.568;7.818;2022-10-16T16:56:08;1.65;;;1.10;;
8439;SDS011;4257;48.568;7.818;2022-10-16T16:58:56;2.95;;;1.20;;
8439;SDS011;4257;48.568;7.818;2022-10-16T17:01:43;2.30;;;0.98;;
8439;SDS011;4257;48.568;7.818;2022-10-16T17:07:20;1.73;;;0.95;;
8439;SDS011;4257;48.568;7.818;2022-10-16T17:10:07;1.98;;;1.08;;
8439;SDS011;4257;48.568;7.818;2022-10-16T17:12:55;2.05;;;1.40;;
8439;SDS011;4257;48.568;7.818;2022-10-16T17:15:45;2.83;;;1.58;;
8439;SDS011;4257;48.568;7.818;2022-10-16T17:18:32;1.95;;;1.15;;
8439;SDS011;4257;48.568;7.818;2022-10-16T17:21:21;2.55;;;1.30;;
8439;SDS011;4257;48.568;7.818;2022-10-16T17:24:08;2.22;;;1.23;;
8439;SDS011;4257;48.568;7.818;2022-10-16T17:26:56;2.92;;;1.20;;
8439;SDS011;4257;48.568;7.818;2022-10-16T17:29:42;3.40;;;1.30;;
8439;SDS011;4257;48.568;7.818;2022-10-16T17:32:30;4.10;;;1.80;;
8439;SDS011;4257;48.568;7.818;2022-10-16T17:35:16;4.15;;;2.25;;
8439;SDS011;4257;48.568;7.818;2022-10-16T17:38:05;3.63;;;2.35;;
8439;SDS011;4257;48.568;7.818;2022-10-16T17:40:52;9.02;;;3.22;;
8439;SDS011;4257;48.568;7.818;2022-10-16T17:43:40;5.25;;;3.60;;
8439;SDS011;4257;48.568;7.818;2022-10-16T17:46:27;4.13;;;1.95;;
8439;SDS011;4257;48.568;7.818;2022-10-16T17:49:14;3.30;;;2.35;;
8439;SDS011;4257;48.568;7.818;2022-10-16T17:52:00;3.63;;;2.25;;
8439;SDS011;4257;48.568;7.818;2022-10-16T17:54:50;6.22;;;2.60;;
8439;SDS011;4257;48.568;7.818;2022-10-16T17:57:37;2.88;;;1.95;;
8439;SDS011;4257;48.568;7.818;2022-10-16T18:00:24;8.20;;;3.60;;
8439;SDS011;4257;48.568;7.818;2022-10-16T18:03:11;3.25;;;2.28;;
8439;SDS011;4257;48.568;7.818;2022-10-16T18:06:00;8.02;;;4.47;;
8439;SDS011;4257;48.568;7.818;2022-10-16T18:08:49;7.05;;;3.53;;
8439;SDS011;4257;48.568;7.818;2022-10-16T18:11:37;6.20;;;3.42;;
8439;SDS011;4257;48.568;7.818;2022-10-16T18:14:25;5.38;;;3.00;;
8439;SDS011;4257;48.568;7.818;2022-10-16T18:17:13;6.07;;;3.10;;
8439;SDS011;4257;48.568;7.818;2022-10-16T18:20:04;4.38;;;2.83;;
8439;SDS011;4257;48.568;7.818;2022-10-16T18:22:52;4.30;;;3.45;;
8439;SDS011;4257;48.568;7.818;2022-10-16T18:25:39;5.25;;;2.60;;